Time;durP1;ratioP1;P1;durP2;ratioP2;P2;SDS_P1;SDS_P2;PMS_P1;PMS_P2;Temp;Humidity;BMP_temperature;BMP_pressure;BME280_temperature;BME280_humidity;BME280_pressure;Samples;Min_cycle;Max_cycle;Signal;HPM_P1;HPM_P2
2023/03/19 00:01:37;;;;;;;4.43;3.10;;;9.80;86.10;;;;;;5067443;28;20653;-68
2023/03/19 00:04:05;;;;;;;2.67;2.47;;;9.80;90.00;;;;;;5067608;28;20612;-68
2023/03/19 00:06:33;;;;;;;2.93;2.73;;;9.70;85.30;;;;;;5067135;28;20657;-69
2023/03/19 00:09:00;;;;;;;5.13;3.20;;;9.70;85.00;;;;;;5065035;28;20628;-68
2023/03/19 00:11:26;;;;;;;2.07;1.87;;;9.60;85.20;;;;;;5067477;28;20760;-69
2023/03/19 00:13:53;;;;;;;2.87;2.20;;;9.70;85.40;;;;;;5067820;28;20640;-68
2023/03/19 00:16:20;;;;;;;2.80;2.20;;;9.70;86.30;;;;;;5068432;28;20653;-69
2023/03/19 00:18:48;;;;;;;2.60;2.40;;;8.00;88.20;;;;;;5066392;28;20661;-68
2023/03/19 00:21:14;;;;;;;5.90;3.03;;;9.70;85.90;;;;;;5065709;28;20692;-68
2023/03/19 00:23:43;;;;;;;5.33;2.90;;;9.70;86.20;;;;;;5066498;28;20621;-68
2023/03/19 00:26:10;;;;;;;5.00;3.67;;;9.70;86.30;;;;;;5067521;28;21222;-67
2023/03/19 00:28:37;;;;;;;3.50;2.77;;;9.70;86.10;;;;;;5066466;28;20644;-67
2023/03/19 00:31:09;;;;;;;2.33;2.23;;;9.70;86.10;;;;;;5068666;28;20736;-68
2023/03/19 00:33:36;;;;;;;2.47;2.37;;;9.70;86.10;;;;;;5068762;28;20630;-68
2023/03/19 00:36:04;;;;;;;4.20;3.43;;;9.70;86.70;;;;;;5066875;28;20645;-68
2023/03/19 00:38:31;;;;;;;2.50;2.30;;;9.60;86.00;;;;;;5062872;28;20677;-67
2023/03/19 00:40:59;;;;;;;2.63;2.40;;;9.70;85.60;;;;;;5066840;28;20651;-68
2023/03/19 00:43:27;;;;;;;2.60;2.40;;;9.70;85.90;;;;;;5070022;28;21029;-68
2023/03/19 00:45:53;;;;;;;4.30;4.00;;;9.70;86.20;;;;;;5065189;28;20652;-67
2023/03/19 00:48:20;;;;;;;3.40;3.20;;;9.70;86.40;;;;;;5065934;28;20649;-68
2023/03/19 00:50:47;;;;;;;4.80;2.93;;;9.70;86.60;;;;;;5063378;28;20655;-67
2023/03/19 00:53:14;;;;;;;2.60;1.30;;;9.60;87.10;;;;;;5066871;28;20629;-67
2023/03/19 00:55:41;;;;;;;2.27;2.07;;;9.60;87.20;;;;;;5066763;28;20707;-68
2023/03/19 00:58:09;;;;;;;1.87;1.77;;;9.60;86.70;;;;;;5065648;28;20661;-67
2023/03/19 01:00:37;;;;;;;3.30;2.20;;;9.60;87.00;;;;;;5067051;28;20664;-67
2023/03/19 01:03:05;;;;;;;4.80;3.00;;;9.60;86.50;;;;;;5064739;28;20622;-68
2023/03/19 01:05:32;;;;;;;2.57;2.47;;;9.70;87.20;;;;;;5066544;28;21136;-67
2023/03/19 01:07:59;;;;;;;2.20;1.93;;;9.80;90.80;;;;;;5065667;28;20680;-68
2023/03/19 01:10:26;;;;;;;3.47;2.93;;;9.60;90.10;;;;;;5065873;28;20656;-68
2023/03/19 01:12:52;;;;;;;3.30;2.40;;;9.80;86.20;;;;;;5066461;28;20633;-67
2023/03/19 01:15:21;;;;;;;8.13;2.33;;;9.80;88.50;;;;;;5066223;28;20736;-67
2023/03/19 01:17:47;;;;;;;2.50;2.23;;;9.70;88.60;;;;;;5065511;28;20653;-66
2023/03/19 01:20:17;;;;;;;1.60;1.50;;;9.70;87.30;;;;;;5065021;28;20625;-66
2023/03/19 01:22:45;;;;;;;2.60;2.40;;;9.70;88.20;;;;;;5062678;28;20641;-66
2023/03/19 01:25:13;;;;;;;1.37;1.10;;;9.80;88.30;;;;;;5066378;28;20616;-66
2023/03/19 01:27:40;;;;;;;2.90;2.60;;;9.70;88.30;;;;;;5066102;28;21387;-66
2023/03/19 01:30:09;;;;;;;3.40;2.57;;;9.70;88.10;;;;;;5064398;28;20729;-67
2023/03/19 01:32:37;;;;;;;2.13;1.83;;;9.80;87.30;;;;;;5065982;28;20618;-67
2023/03/19 01:35:04;;;;;;;1.73;1.57;;;9.80;87.10;;;;;;5065040;28;20625;-65
2023/03/19 01:37:31;;;;;;;2.10;1.93;;;9.80;87.30;;;;;;5065552;28;20661;-66
2023/03/19 01:39:58;;;;;;;2.43;2.23;;;9.90;86.30;;;;;;5062126;28;21018;-66
2023/03/19 01:42:25;;;;;;;3.07;2.63;;;10.00;85.10;;;;;;5065534;28;20630;-67
2023/03/19 01:44:52;;;;;;;5.20;2.30;;;10.00;85.80;;;;;;5064647;28;20622;-66
2023/03/19 01:47:27;;;;;;;1.20;1.10;;;9.90;87.60;;;;;;5065612;28;20653;-66
2023/03/19 01:49:57;;;;;;;1.87;1.60;;;10.00;81.60;;;;;;5065423;28;20621;-66
2023/03/19 01:52:27;;;;;;;1.10;1.00;;;10.30;79.10;;;;;;5065770;28;20647;-67
2023/03/19 01:54:55;;;;;;;1.77;1.60;;;10.30;78.00;;;;;;5065605;28;20643;-66
2023/03/19 01:57:23;;;;;;;1.53;0.87;;;10.40;83.00;;;;;;5065106;28;21675;-66
2023/03/19 01:59:52;;;;;;;1.20;1.10;;;10.50;77.30;;;;;;5064361;28;20622;-67
2023/03/19 02:02:25;;;;;;;1.63;1.43;;;10.60;77.70;;;;;;5064556;28;20667;-67
2023/03/19 02:04:57;;;;;;;1.70;1.20;;;10.70;79.00;;;;;;5064603;28;21285;-67
2023/03/19 02:07:25;;;;;;;2.10;1.60;;;10.70;79.80;;;;;;5063829;28;21463;-66
2023/03/19 02:09:53;;;;;;;1.10;1.00;;;10.70;81.10;;;;;;5063962;28;20739;-66
2023/03/19 02:12:20;;;;;;;1.90;1.80;;;10.70;83.10;;;;;;5064727;28;20653;-67
2023/03/19 02:14:49;;;;;;;1.20;1.10;;;10.60;86.20;;;;;;5064382;28;20665;-66
2023/03/19 02:17:17;;;;;;;2.40;2.27;;;10.50;90.60;;;;;;5061578;28;20660;-66
2023/03/19 02:19:54;;;;;;;3.23;1.57;;;10.40;92.60;;;;;;5064088;28;20636;-67
2023/03/19 02:22:26;;;;;;;1.53;1.43;;;10.30;94.30;;;;;;5067387;28;20653;-66
2023/03/19 02:24:59;;;;;;;2.23;1.40;;;10.20;95.60;;;;;;5062774;28;20686;-66
2023/03/19 02:27:29;;;;;;;2.50;2.13;;;10.10;97.60;;;;;;5063500;28;20665;-67
2023/03/19 02:29:55;;;;;;;2.23;2.03;;;10.00;99.00;;;;;;5062980;28;20706;-66
2023/03/19 02:32:23;;;;;;;2.80;1.43;;;10.00;99.90;;;;;;5064720;28;20739;-68
2023/03/19 02:34:50;;;;;;;2.13;1.97;;;10.00;99.90;;;;;;5065509;28;20669;-66
2023/03/19 02:37:22;;;;;;;2.10;1.90;;;10.00;99.90;;;;;;5065673;28;21228;-68
2023/03/19 02:39:55;;;;;;;2.63;1.77;;;10.00;99.90;;;;;;5063604;28;21191;-67
2023/03/19 02:42:25;;;;;;;1.63;1.53;;;10.10;99.90;;;;;;5066008;28;20711;-67
2023/03/19 02:44:53;;;;;;;2.00;1.90;;;10.00;99.90;;;;;;5061838;28;20625;-68
2023/03/19 02:47:22;;;;;;;1.77;1.67;;;9.90;99.90;;;;;;5064005;28;21075;-67
2023/03/19 02:49:50;;;;;;;3.47;1.80;;;9.90;99.90;;;;;;5063808;28;20616;-67
2023/03/19 02:52:17;;;;;;;1.90;1.80;;;9.90;99.90;;;;;;5062656;28;21279;-66
2023/03/19 02:54:45;;;;;;;2.60;1.70;;;9.90;99.90;;;;;;5064880;28;21371;-67
2023/03/19 02:57:13;;;;;;;1.70;1.60;;;9.70;99.90;;;;;;5062886;28;20694;-66
2023/03/19 02:59:41;;;;;;;1.83;1.27;;;9.80;99.90;;;;;;5064206;28;21195;-67
2023/03/19 03:02:11;;;;;;;1.50;1.40;;;9.90;99.90;;;;;;5064645;28;20693;-67
2023/03/19 03:04:38;;;;;;;1.83;1.63;;;9.80;99.90;;;;;;5065357;28;20614;-67
2023/03/19 03:07:06;;;;;;;1.60;1.47;;;9.70;99.90;;;;;;5064333;28;20660;-67
2023/03/19 03:09:33;;;;;;;1.43;1.27;;;9.60;99.90;;;;;;5063119;28;20664;-66
2023/03/19 03:12:00;;;;;;;1.73;1.63;;;9.60;99.90;;;;;;5063977;28;20645;-67
2023/03/19 03:14:27;;;;;;;1.93;1.83;;;9.60;99.90;;;;;;5064992;28;21381;-66
2023/03/19 03:16:54;;;;;;;1.83;1.73;;;9.50;99.90;;;;;;5064692;28;20691;-67
2023/03/19 03:19:22;;;;;;;1.90;1.80;;;9.50;99.90;;;;;;5064805;28;20683;-67
2023/03/19 03:21:49;;;;;;;2.00;1.90;;;9.60;99.90;;;;;;5064251;28;20795;-67
2023/03/19 03:24:17;;;;;;;3.60;2.30;;;9.70;99.90;;;;;;5063377;28;21049;-68
2023/03/19 03:26:44;;;;;;;2.07;1.97;;;9.70;99.90;;;;;;5064047;28;20648;-67
2023/03/19 03:29:12;;;;;;;2.40;2.20;;;9.70;99.90;;;;;;5064702;28;20619;-67
2023/03/19 03:31:40;;;;;;;1.30;1.20;;;9.90;99.90;;;;;;5067692;28;20650;-66
2023/03/19 03:34:10;;;;;;;5.93;2.43;;;9.80;99.90;;;;;;5064853;28;20629;-66
2023/03/19 03:36:38;;;;;;;4.03;2.60;;;9.70;99.90;;;;;;5067749;28;20654;-66
2023/03/19 03:39:05;;;;;;;2.53;2.20;;;9.80;99.90;;;;;;5066960;28;20656;-66
2023/03/19 03:41:32;;;;;;;2.60;2.23;;;9.70;99.90;;;;;;5066266;28;20649;-66
2023/03/19 03:44:01;;;;;;;5.57;2.23;;;9.80;99.90;;;;;;5068498;28;20621;-67
2023/03/19 03:46:28;;;;;;;2.30;2.10;;;9.80;99.90;;;;;;5067753;28;20655;-67
2023/03/19 03:48:55;;;;;;;1.27;1.17;;;9.80;99.90;;;;;;5067017;28;20633;-67
2023/03/19 03:51:23;;;;;;;1.53;1.43;;;9.80;99.90;;;;;;5067886;28;20653;-67
2023/03/19 03:53:53;;;;;;;2.33;2.10;;;9.80;99.90;;;;;;5067537;28;20629;-67
2023/03/19 03:56:20;;;;;;;2.73;2.57;;;9.80;99.90;;;;;;5068230;28;20649;-67
2023/03/19 03:58:48;;;;;;;4.67;2.03;;;9.80;99.90;;;;;;5067340;28;21315;-67
2023/03/19 04:01:16;;;;;;;3.63;2.23;;;9.80;99.90;;;;;;5068284;28;21283;-68
2023/03/19 04:03:45;;;;;;;1.70;1.60;;;9.80;99.90;;;;;;5067595;28;20613;-66
2023/03/19 04:06:15;;;;;;;1.90;1.80;;;9.80;99.90;;;;;;5067389;28;20814;-66
2023/03/19 04:08:42;;;;;;;1.90;1.80;;;9.80;99.90;;;;;;5066026;28;20614;-67
2023/03/19 04:11:10;;;;;;;1.50;1.40;;;9.80;99.90;;;;;;5069364;28;20775;-67
2023/03/19 04:13:38;;;;;;;2.03;1.73;;;9.80;99.90;;;;;;5068417;28;20684;-67
2023/03/19 04:16:05;;;;;;;2.50;2.17;;;9.80;99.90;;;;;;5068206;28;21503;-67
2023/03/19 04:18:32;;;;;;;1.60;1.33;;;9.80;99.90;;;;;;5066985;28;21252;-66
2023/03/19 04:20:59;;;;;;;2.40;1.50;;;9.80;99.90;;;;;;5066494;28;21070;-67
2023/03/19 04:23:26;;;;;;;1.87;1.60;;;9.70;99.90;;;;;;5068012;28;20616;-67
2023/03/19 04:25:57;;;;;;;2.03;1.83;;;9.70;99.90;;;;;;5067163;28;20649;-67
2023/03/19 04:28:26;;;;;;;1.33;1.23;;;9.70;99.90;;;;;;5065393;28;20649;-66
2023/03/19 04:30:58;;;;;;;2.80;2.60;;;9.70;99.90;;;;;;5067085;28;20651;-67
2023/03/19 04:33:24;;;;;;;1.93;1.73;;;9.70;99.90;;;;;;5066496;28;20725;-67
2023/03/19 04:35:51;;;;;;;2.63;1.87;;;9.70;99.90;;;;;;5066956;28;20638;-67
2023/03/19 04:38:18;;;;;;;3.20;1.60;;;10.00;99.90;;;;;;5063301;28;20675;-67
2023/03/19 04:40:46;;;;;;;1.50;1.40;;;9.70;99.90;;;;;;5067738;28;20645;-68
2023/03/19 04:43:13;;;;;;;5.47;2.77;;;9.70;99.90;;;;;;5065825;28;21503;-67
2023/03/19 04:45:41;;;;;;;1.77;1.67;;;9.80;99.90;;;;;;5066786;28;20657;-66
2023/03/19 04:48:08;;;;;;;2.87;2.03;;;9.70;99.90;;;;;;5064942;28;20617;-68
2023/03/19 04:50:35;;;;;;;2.10;1.73;;;9.80;99.90;;;;;;5066724;28;20648;-66
2023/03/19 04:53:02;;;;;;;5.07;1.33;;;9.80;99.90;;;;;;5067134;28;20633;-67
2023/03/19 04:55:28;;;;;;;1.80;1.70;;;9.70;99.90;;;;;;5066222;28;20768;-66
2023/03/19 04:57:55;;;;;;;2.23;1.37;;;9.70;99.90;;;;;;5066196;28;20859;-67
2023/03/19 05:00:22;;;;;;;2.50;1.70;;;9.70;99.90;;;;;;5064696;28;20610;-68
2023/03/19 05:02:50;;;;;;;3.13;2.03;;;9.70;99.90;;;;;;5066196;28;21183;-68
2023/03/19 05:05:17;;;;;;;1.57;1.47;;;9.70;99.90;;;;;;5065660;28;21183;-66
2023/03/19 05:07:44;;;;;;;1.90;1.60;;;9.60;99.90;;;;;;5066052;28;20625;-66
2023/03/19 05:10:12;;;;;;;3.50;1.67;;;9.60;99.90;;;;;;5066466;28;20620;-67
2023/03/19 05:12:38;;;;;;;2.27;2.10;;;9.60;99.90;;;;;;5065014;28;20632;-67
2023/03/19 05:15:06;;;;;;;2.47;2.27;;;9.50;99.90;;;;;;5063690;28;21065;-67
2023/03/19 05:17:34;;;;;;;3.40;1.80;;;9.50;99.90;;;;;;5066149;28;20633;-67
2023/03/19 05:20:03;;;;;;;1.77;1.67;;;9.60;99.90;;;;;;5064447;28;21276;-67
2023/03/19 05:22:30;;;;;;;2.33;2.13;;;9.60;99.90;;;;;;5067730;28;20629;-66
2023/03/19 05:24:58;;;;;;;1.77;1.50;;;9.50;99.90;;;;;;5066014;28;21025;-67
2023/03/19 05:27:25;;;;;;;1.70;1.53;;;9.50;99.90;;;;;;5065821;28;21284;-67
2023/03/19 05:29:52;;;;;;;3.70;2.23;;;9.50;99.90;;;;;;5065678;28;20621;-67
2023/03/19 05:32:19;;;;;;;3.53;2.90;;;9.40;99.90;;;;;;5065389;28;20653;-67
2023/03/19 05:34:46;;;;;;;2.23;2.00;;;9.40;99.90;;;;;;5066214;28;20699;-67
2023/03/19 05:37:15;;;;;;;2.00;1.90;;;9.50;99.90;;;;;;5065819;28;20649;-66
2023/03/19 05:39:42;;;;;;;2.30;1.70;;;9.50;99.90;;;;;;5063404;28;21002;-67
2023/03/19 05:42:10;;;;;;;2.13;2.00;;;9.30;99.90;;;;;;5064802;28;20655;-67
2023/03/19 05:44:37;;;;;;;1.77;1.67;;;9.40;99.90;;;;;;5065671;28;21074;-66
2023/03/19 05:47:04;;;;;;;1.60;1.50;;;9.50;99.90;;;;;;5065340;28;20652;-68
2023/03/19 05:49:31;;;;;;;1.23;1.13;;;9.50;99.90;;;;;;5065710;28;20633;-66
2023/03/19 05:51:57;;;;;;;2.60;2.13;;;9.60;99.90;;;;;;5066296;28;20653;-66
2023/03/19 05:54:26;;;;;;;6.03;2.17;;;9.50;99.90;;;;;;5064686;28;20630;-66
2023/03/19 05:56:52;;;;;;;2.43;1.70;;;9.40;99.90;;;;;;5065021;28;20638;-66
2023/03/19 05:59:19;;;;;;;2.73;1.83;;;9.40;99.90;;;;;;5063957;28;20665;-67
2023/03/19 06:01:46;;;;;;;6.33;2.40;;;9.40;99.90;;;;;;5065565;28;20663;-66
2023/03/19 06:04:13;;;;;;;4.40;1.70;;;9.30;99.90;;;;;;5065414;28;20621;-67
2023/03/19 06:06:40;;;;;;;1.73;1.60;;;9.30;99.90;;;;;;5065319;28;20645;-67
2023/03/19 06:09:07;;;;;;;2.30;2.10;;;9.30;99.90;;;;;;5063494;28;20621;-66
2023/03/19 06:11:38;;;;;;;2.00;1.90;;;9.30;99.90;;;;;;5064462;28;20755;-66
2023/03/19 06:14:05;;;;;;;1.30;1.30;;;9.30;99.90;;;;;;5065821;28;20625;-67
2023/03/19 06:16:32;;;;;;;2.03;1.87;;;9.40;99.90;;;;;;5064983;28;20663;-66
2023/03/19 06:18:59;;;;;;;1.63;1.53;;;9.40;99.90;;;;;;5063773;28;20665;-66
2023/03/19 06:21:28;;;;;;;1.53;1.43;;;9.30;99.90;;;;;;5065041;28;20690;-67
2023/03/19 06:23:55;;;;;;;1.83;1.73;;;9.30;99.90;;;;;;5064251;28;20679;-68
2023/03/19 06:26:22;;;;;;;2.53;1.40;;;9.40;99.90;;;;;;5064569;28;20661;-67
2023/03/19 06:28:50;;;;;;;2.90;2.57;;;9.50;99.90;;;;;;5064392;28;20626;-67
2023/03/19 06:31:17;;;;;;;1.50;1.40;;;9.50;99.90;;;;;;5065799;28;20684;-69
2023/03/19 06:33:44;;;;;;;1.83;1.73;;;9.50;99.90;;;;;;5064654;28;20625;-66
2023/03/19 06:36:11;;;;;;;3.70;1.90;;;9.60;99.90;;;;;;5064259;28;20641;-67
2023/03/19 06:38:37;;;;;;;4.20;2.07;;;9.60;99.90;;;;;;5059951;28;20637;-66
2023/03/19 06:41:05;;;;;;;4.53;1.80;;;9.60;99.90;;;;;;5064799;28;21155;-67
2023/03/19 06:43:35;;;;;;;5.90;2.27;;;9.50;99.90;;;;;;5065011;28;20625;-67
2023/03/19 06:46:05;;;;;;;1.70;1.60;;;9.60;99.90;;;;;;5065058;28;20707;-66
2023/03/19 06:48:32;;;;;;;2.33;2.00;;;9.60;99.90;;;;;;5064184;28;21197;-68
2023/03/19 06:50:59;;;;;;;2.37;1.63;;;9.60;99.90;;;;;;5067396;28;20652;-67
2023/03/19 06:53:26;;;;;;;3.20;2.73;;;9.70;99.90;;;;;;5064863;28;21045;-67
2023/03/19 06:55:53;;;;;;;2.07;1.80;;;9.70;99.90;;;;;;5064952;28;20646;-66
2023/03/19 06:58:20;;;;;;;4.40;1.73;;;9.70;99.90;;;;;;5063024;28;20629;-66
2023/03/19 07:00:47;;;;;;;2.40;1.80;;;9.70;99.90;;;;;;5065265;28;20669;-66
2023/03/19 07:03:15;;;;;;;3.17;2.30;;;9.80;99.90;;;;;;5064950;28;20635;-67
2023/03/19 07:05:42;;;;;;;1.30;1.20;;;9.80;99.90;;;;;;5064734;28;20652;-66
2023/03/19 07:08:10;;;;;;;0.87;0.87;;;9.80;99.90;;;;;;5067434;28;20626;-67
2023/03/19 07:10:37;;;;;;;1.57;1.47;;;9.90;99.90;;;;;;5066111;28;20649;-66
2023/03/19 07:13:04;;;;;;;3.87;2.17;;;9.90;99.90;;;;;;5067891;28;20992;-66
2023/03/19 07:15:31;;;;;;;3.70;3.40;;;9.80;99.90;;;;;;5065930;28;21135;-67
2023/03/19 07:17:58;;;;;;;1.30;1.20;;;9.80;99.90;;;;;;5068909;28;20628;-68
2023/03/19 07:20:26;;;;;;;1.80;1.70;;;9.80;99.90;;;;;;5067775;28;20685;-67
2023/03/19 07:22:53;;;;;;;1.70;1.60;;;9.80;99.90;;;;;;5067639;28;20633;-66
2023/03/19 07:25:20;;;;;;;1.53;1.20;;;9.80;99.90;;;;;;5067903;28;20621;-66
2023/03/19 07:27:47;;;;;;;2.80;1.80;;;9.80;99.90;;;;;;5068444;28;20621;-67
2023/03/19 07:30:15;;;;;;;1.40;1.30;;;9.90;99.90;;;;;;5066783;28;20624;-66
2023/03/19 07:32:42;;;;;;;1.77;1.67;;;9.90;99.90;;;;;;5067157;28;20665;-66
2023/03/19 07:35:10;;;;;;;1.83;1.70;;;9.90;99.90;;;;;;5067896;28;20624;-67
2023/03/19 07:37:38;;;;;;;3.50;1.93;;;10.00;99.90;;;;;;5069208;28;20690;-66
2023/03/19 07:40:06;;;;;;;0.67;0.67;;;10.10;99.90;;;;;;5066335;28;20994;-66
2023/03/19 07:42:35;;;;;;;1.60;1.50;;;10.00;99.90;;;;;;5068263;28;20699;-67
2023/03/19 07:45:02;;;;;;;3.13;2.10;;;10.10;99.90;;;;;;5066474;28;20629;-66
2023/03/19 07:47:29;;;;;;;1.10;1.10;;;10.00;99.90;;;;;;5067452;28;20656;-67
2023/03/19 07:49:56;;;;;;;2.27;2.07;;;10.20;99.90;;;;;;5067766;28;20633;-67
2023/03/19 07:52:23;;;;;;;1.63;1.53;;;10.20;99.90;;;;;;5068259;28;20653;-66
2023/03/19 07:54:51;;;;;;;1.40;1.30;;;10.20;99.90;;;;;;5067857;28;20640;-66
2023/03/19 07:57:18;;;;;;;1.20;1.03;;;10.30;99.90;;;;;;5067051;28;20657;-67
2023/03/19 07:59:45;;;;;;;1.60;1.50;;;10.20;99.90;;;;;;5064906;28;20659;-68
2023/03/19 08:02:13;;;;;;;2.53;1.50;;;10.20;99.90;;;;;;5067328;28;20652;-68
2023/03/19 08:04:40;;;;;;;1.20;1.13;;;10.30;99.90;;;;;;5064322;28;20670;-67
2023/03/19 08:07:09;;;;;;;1.30;1.20;;;10.30;99.90;;;;;;5066756;28;20707;-68
2023/03/19 08:09:36;;;;;;;1.70;1.60;;;10.40;99.90;;;;;;5066330;28;20626;-67
2023/03/19 08:12:05;;;;;;;2.73;2.47;;;10.50;99.90;;;;;;5067384;28;20653;-68
2023/03/19 08:14:32;;;;;;;2.10;1.53;;;10.50;99.90;;;;;;5066771;28;20637;-68
2023/03/19 08:16:59;;;;;;;1.63;1.53;;;10.60;99.90;;;;;;5067681;28;20740;-68
2023/03/19 08:19:25;;;;;;;1.40;1.30;;;10.60;99.90;;;;;;5065902;28;20669;-67
2023/03/19 08:21:52;;;;;;;2.53;1.60;;;10.70;99.90;;;;;;5067076;28;20688;-69
2023/03/19 08:24:19;;;;;;;1.63;1.50;;;10.70;99.90;;;;;;5066581;28;20632;-68
2023/03/19 08:26:46;;;;;;;2.23;2.03;;;10.80;99.90;;;;;;5066655;28;20807;-68
2023/03/19 08:29:14;;;;;;;1.27;1.17;;;10.80;99.90;;;;;;5066108;28;20624;-68
2023/03/19 08:31:41;;;;;;;1.60;1.50;;;10.90;99.90;;;;;;5067185;28;21368;-68
2023/03/19 08:34:09;;;;;;;1.47;1.37;;;10.90;99.80;;;;;;5070068;28;20607;-68
2023/03/19 08:36:36;;;;;;;2.63;1.73;;;11.00;99.70;;;;;;5065927;28;20680;-68
2023/03/19 08:39:03;;;;;;;0.90;0.90;;;11.00;99.60;;;;;;5064059;28;20633;-68
2023/03/19 08:41:30;;;;;;;1.00;0.93;;;11.10;99.30;;;;;;5064433;28;20996;-69
2023/03/19 08:43:57;;;;;;;1.60;1.20;;;11.20;99.40;;;;;;5068627;28;20628;-68
2023/03/19 08:46:26;;;;;;;1.20;1.10;;;11.20;99.10;;;;;;5069249;28;21405;-67
2023/03/19 08:48:53;;;;;;;1.40;1.30;;;11.30;99.30;;;;;;5065560;28;20628;-68
2023/03/19 08:51:20;;;;;;;1.30;1.20;;;11.40;99.10;;;;;;5065527;28;20649;-68
2023/03/19 08:53:47;;;;;;;1.63;1.53;;;11.40;99.30;;;;;;5065753;28;20634;-68
2023/03/19 08:56:13;;;;;;;0.90;0.90;;;11.50;99.70;;;;;;5064905;28;20660;-68
2023/03/19 08:58:41;;;;;;;2.00;0.70;;;11.50;99.50;;;;;;5065109;28;20640;-68
2023/03/19 09:01:10;;;;;;;1.70;1.60;;;11.60;98.70;;;;;;5065809;28;20702;-68
2023/03/19 09:03:39;;;;;;;0.80;0.80;;;11.70;98.90;;;;;;5064543;28;21189;-67
2023/03/19 09:06:09;;;;;;;0.93;0.80;;;11.90;98.70;;;;;;5065445;28;20645;-68
2023/03/19 09:08:37;;;;;;;1.17;1.17;;;11.90;98.50;;;;;;5064779;28;20612;-68
2023/03/19 09:11:05;;;;;;;1.47;1.37;;;11.90;98.50;;;;;;5064348;28;20748;-68
2023/03/19 09:13:32;;;;;;;0.97;0.87;;;12.00;98.50;;;;;;5066656;28;20644;-68
2023/03/19 09:16:00;;;;;;;1.80;1.70;;;12.10;98.20;;;;;;5065555;28;20661;-68
2023/03/19 09:18:27;;;;;;;2.10;1.87;;;12.20;97.90;;;;;;5064453;28;20637;-68
2023/03/19 09:20:55;;;;;;;1.50;1.40;;;12.50;98.20;;;;;;5066796;28;20673;-68
2023/03/19 09:23:22;;;;;;;1.80;1.70;;;12.80;97.10;;;;;;5062544;28;20641;-68
2023/03/19 09:25:49;;;;;;;1.00;0.80;;;12.80;97.00;;;;;;5065131;28;20760;-68
2023/03/19 09:28:17;;;;;;;1.90;1.60;;;12.80;96.40;;;;;;5062636;28;21194;-68
2023/03/19 09:30:45;;;;;;;1.30;1.20;;;12.90;96.30;;;;;;5065845;28;20672;-68
2023/03/19 09:33:12;;;;;;;1.17;1.17;;;13.00;96.50;;;;;;5065477;28;20629;-68
2023/03/19 09:35:39;;;;;;;1.53;1.37;;;13.10;95.70;;;;;;5065072;28;20649;-70
2023/03/19 09:38:07;;;;;;;1.50;1.40;;;13.20;94.80;;;;;;5064369;28;20625;-69
2023/03/19 09:40:38;;;;;;;1.43;1.23;;;13.20;95.30;;;;;;5064854;28;20680;-68
2023/03/19 09:43:21;;;;;;;1.73;1.63;;;13.30;94.90;;;;;;5066013;28;20628;-70
2023/03/19 09:45:48;;;;;;;1.57;1.20;;;13.30;94.20;;;;;;5064338;28;20649;-68
2023/03/19 09:48:19;;;;;;;1.33;1.23;;;13.40;93.60;;;;;;5061901;28;21229;-69
2023/03/19 09:50:48;;;;;;;1.00;0.90;;;13.50;94.00;;;;;;5065545;28;20633;-68
2023/03/19 09:53:27;;;;;;;1.43;1.30;;;13.60;94.00;;;;;;5067619;28;20636;-68
2023/03/19 09:55:57;;;;;;;1.57;0.90;;;13.80;92.50;;;;;;5067362;28;20653;-68
2023/03/19 09:58:31;;;;;;;1.20;1.10;;;13.70;90.80;;;;;;5065453;28;20600;-68
2023/03/19 10:00:58;;;;;;;1.40;1.30;;;13.80;91.70;;;;;;5067950;28;20673;-68
2023/03/19 10:03:46;;;;;;;1.20;1.10;;;13.90;91.90;;;;;;5067496;28;20640;-68
2023/03/19 10:06:24;;;;;;;2.03;1.20;;;14.00;90.60;;;;;;5067072;28;20654;-68
2023/03/19 10:09:12;;;;;;;2.97;1.57;;;14.10;91.00;;;;;;5066230;28;21020;-68
2023/03/19 10:11:55;;;;;;;1.17;0.93;;;14.00;91.50;;;;;;5066921;28;20649;-68
2023/03/19 10:14:43;;;;;;;1.17;1.13;;;14.10;91.00;;;;;;5065457;28;21043;-68
2023/03/19 10:17:16;;;;;;;1.47;0.70;;;14.20;90.50;;;;;;5066819;28;21389;-68
2023/03/19 10:19:46;;;;;;;1.20;1.03;;;14.20;90.00;;;;;;5047013;28;20625;-68
2023/03/19 10:22:16;;;;;;;0.90;0.90;;;14.30;91.00;;;;;;5060999;28;20652;-68
2023/03/19 10:24:45;;;;;;;3.47;1.50;;;14.40;90.40;;;;;;5067382;28;20616;-68
2023/03/19 10:27:15;;;;;;;1.47;1.37;;;14.50;90.70;;;;;;5066055;28;20649;-69
2023/03/19 10:29:42;;;;;;;3.30;1.50;;;14.60;89.30;;;;;;5065008;28;21235;-68
2023/03/19 10:32:20;;;;;;;1.00;1.00;;;14.70;85.40;;;;;;5064804;28;20650;-67
2023/03/19 10:34:49;;;;;;;2.00;1.53;;;14.70;85.60;;;;;;5066024;28;20694;-67
2023/03/19 10:37:19;;;;;;;1.57;1.20;;;14.80;84.20;;;;;;5064935;28;20654;-67
2023/03/19 10:39:49;;;;;;;1.13;1.07;;;15.00;82.00;;;;;;5065600;28;20640;-67
2023/03/19 10:42:48;;;;;;;0.97;0.97;;;14.90;82.80;;;;;;5065310;28;20654;-68
2023/03/19 10:45:23;;;;;;;2.33;0.83;;;15.00;84.10;;;;;;5058456;28;20629;-67
2023/03/19 10:47:52;;;;;;;0.80;0.80;;;15.10;81.80;;;;;;5065027;28;20625;-69
2023/03/19 10:50:22;;;;;;;1.93;1.83;;;15.20;84.50;;;;;;5064150;28;20625;-67
2023/03/19 10:52:51;;;;;;;1.60;1.50;;;15.10;80.90;;;;;;5065054;28;20657;-69
2023/03/19 10:55:25;;;;;;;0.77;0.67;;;15.40;82.30;;;;;;5066314;28;20634;-69
2023/03/19 10:58:01;;;;;;;0.93;0.70;;;15.60;79.60;;;;;;5065003;28;20614;-67
2023/03/19 11:00:31;;;;;;;1.30;1.03;;;15.60;77.20;;;;;;5064483;28;20679;-67
2023/03/19 11:02:58;;;;;;;0.50;0.50;;;15.50;80.10;;;;;;5065390;28;20622;-66
2023/03/19 11:05:26;;;;;;;1.07;1.07;;;15.70;80.90;;;;;;5064958;28;21769;-65
2023/03/19 11:07:57;;;;;;;1.47;1.20;;;15.60;77.90;;;;;;5064514;28;20618;-65
2023/03/19 11:10:28;;;;;;;3.50;1.50;;;15.70;78.90;;;;;;5064048;28;20658;-65
2023/03/19 11:12:57;;;;;;;1.33;1.23;;;15.70;77.60;;;;;;5064562;28;20617;-66
2023/03/19 11:15:29;;;;;;;2.13;1.50;;;15.80;78.50;;;;;;5063922;28;20665;-65
2023/03/19 11:17:58;;;;;;;2.40;1.57;;;15.80;76.70;;;;;;5065509;28;20625;-65
2023/03/19 11:20:30;;;;;;;1.63;1.40;;;15.80;79.00;;;;;;5064461;28;21006;-65
2023/03/19 11:23:01;;;;;;;2.00;1.00;;;15.90;77.80;;;;;;5063031;28;20634;-65
2023/03/19 11:25:35;;;;;;;1.70;0.93;;;16.00;79.80;;;;;;5064934;28;21323;-65
2023/03/19 11:28:06;;;;;;;1.37;1.30;;;16.10;79.00;;;;;;5064375;28;21198;-66
2023/03/19 11:30:39;;;;;;;2.03;1.27;;;16.20;77.00;;;;;;5065058;28;20650;-65
2023/03/19 11:33:27;;;;;;;1.63;0.93;;;16.20;74.70;;;;;;5064371;28;20635;-67
2023/03/19 11:36:02;;;;;;;1.23;1.10;;;16.20;75.50;;;;;;5064262;28;20661;-65
2023/03/19 11:38:38;;;;;;;0.93;0.93;;;16.10;72.70;;;;;;5063337;28;21204;-66
2023/03/19 11:41:15;;;;;;;2.17;2.00;;;16.30;75.20;;;;;;5066229;28;20678;-66
2023/03/19 11:43:51;;;;;;;1.50;1.40;;;16.20;70.90;;;;;;5066377;28;20633;-65
2023/03/19 11:46:32;;;;;;;0.93;0.93;;;16.30;72.30;;;;;;5064090;28;20649;-66
2023/03/19 11:49:26;;;;;;;1.13;0.90;;;16.30;70.30;;;;;;5062774;28;20626;-67
2023/03/19 11:51:59;;;;;;;1.10;1.00;;;16.00;70.10;;;;;;5065967;28;20653;-67
2023/03/19 11:54:37;;;;;;;0.90;0.90;;;16.10;72.80;;;;;;5068118;28;20641;-67
2023/03/19 11:57:11;;;;;;;1.38;1.27;;;16.30;73.00;;;;;;5067007;28;20757;-67
2023/03/19 12:00:06;;;;;;;1.70;1.47;;;16.30;71.60;;;;;;5066877;28;20187;-67
2023/03/19 12:03:01;;;;;;;1.43;1.33;;;16.30;70.50;;;;;;5063531;28;20641;-65
2023/03/19 12:05:32;;;;;;;1.47;1.00;;;16.80;76.30;;;;;;5059094;28;20665;-66
2023/03/19 12:08:10;;;;;;;2.93;2.00;;;16.40;72.50;;;;;;5062949;28;20703;-65
2023/03/19 12:10:49;;;;;;;1.17;1.00;;;16.40;71.30;;;;;;5067095;28;20649;-66
2023/03/19 12:13:35;;;;;;;1.20;1.00;;;16.30;69.80;;;;;;5061516;28;20633;-66
2023/03/19 12:16:12;;;;;;;1.47;1.37;;;16.20;70.40;;;;;;5065758;28;21226;-67
2023/03/19 12:19:10;;;;;;;1.10;1.10;;;16.20;72.10;;;;;;5067019;28;21361;-65
2023/03/19 12:21:46;;;;;;;1.30;1.20;;;16.10;71.00;;;;;;5065076;28;20671;-65
2023/03/19 12:24:24;;;;;;;1.40;1.00;;;15.90;69.00;;;;;;5068573;28;20625;-65
2023/03/19 12:27:03;;;;;;;1.37;1.27;;;16.00;70.40;;;;;;5069542;28;20637;-66
2023/03/19 12:29:44;;;;;;;1.53;1.43;;;16.30;72.70;;;;;;5067960;28;20625;-66
2023/03/19 12:32:20;;;;;;;2.00;1.90;;;16.60;73.10;;;;;;5069604;28;20657;-66
2023/03/19 12:34:52;;;;;;;2.30;1.27;;;16.70;71.60;;;;;;5068880;28;20624;-67
2023/03/19 12:37:26;;;;;;;1.43;1.20;;;16.60;70.80;;;;;;5069198;28;20748;-66
2023/03/19 12:40:05;;;;;;;1.27;0.80;;;16.50;69.50;;;;;;5066247;28;21374;-66
2023/03/19 12:42:37;;;;;;;1.47;1.37;;;16.40;68.30;;;;;;5068304;28;20704;-66
2023/03/19 12:45:19;;;;;;;1.07;1.03;;;16.30;69.70;;;;;;5067656;28;20670;-66
2023/03/19 12:47:47;;;;;;;1.10;1.00;;;16.50;70.50;;;;;;5067713;28;20640;-66
2023/03/19 12:50:17;;;;;;;1.93;1.40;;;16.70;69.80;;;;;;5067780;28;21206;-66
2023/03/19 12:52:48;;;;;;;1.37;0.93;;;16.70;70.20;;;;;;5058222;28;20629;-68
2023/03/19 12:55:19;;;;;;;4.70;1.30;;;16.70;71.60;;;;;;5067061;28;21005;-66
2023/03/19 12:57:51;;;;;;;1.40;1.30;;;16.30;70.30;;;;;;5067655;28;20617;-65
2023/03/19 13:00:26;;;;;;;1.30;1.20;;;15.80;74.60;;;;;;5066611;28;20653;-66
2023/03/19 13:02:59;;;;;;;2.37;1.37;;;16.00;71.00;;;;;;5065299;28;20706;-66
2023/03/19 13:05:32;;;;;;;1.40;1.20;;;16.00;72.30;;;;;;5068301;28;20739;-65